Flight Track Log - Related Links

Times and Time Zones

All times are in EST time to prevent confusion due to time zone crossing. See the N3TN flight status page for this flight to view local times or setup timezone preferences in your user account.

Time Position Orientation Groundspeed Altitude Reporting Facility
EST Latitude Longitude Course Direction KTS MPH feet Rate Location/Type
Tue 10:41:12 AM 44.4397 -73.1547 307° West 64 74 2,100  Level Boston Center
Tue 10:42:12 AM 44.4275 -73.1744 229° Southwest 68 78 2,600 446 Climbing Boston Center
Tue 10:43:13 AM 44.4114 -73.1936 220° Southwest 74 85 3,000 99 Climbing Boston Center
Tue 10:44:13 AM 44.3922 -73.2183 223° Southwest 92 106 2,800 50 Descending Boston Center
Tue 10:45:00 AM 44.4719 -73.1533 130° Southeast  Level Estimated
Tue 10:45:14 AM 44.4119 -73.2433 318° Northwest 97 112 3,100  Level Boston Center
Tue 10:46:00 AM 44.4719 -73.1533 307° West  Level Estimated
Tue 10:46:18 AM 44.4222 -73.2722 296° West 91 105 3,100  Level Boston Center
Tue 10:47:19 AM 44.4314 -73.3083 290° West 94 108 3,000  Descending Boston Center
Tue 10:48:19 AM 44.4444 -73.3414 299° West 97 112 3,100  Climbing Boston Center
Tue 10:49:19 AM 44.4689 -73.3569 336° Northwest 99 114 3,000 -50 Descending Boston Center
Tue 10:50:20 AM 44.4964 -73.3756 334° Northwest 103 119 3,000 -97 Level Boston Center
Tue 10:51:23 AM 44.5194 -73.3922 333° Northwest 96 110 2,800 -339 Descending Boston Center
Tue 10:52:24 AM 44.5458 -73.4056 340° North 100 115 2,300 -446 Descending Boston Center
Tue 10:53:24 AM 44.5728 -73.4217 337° Northwest 104 120 1,900 -545 Descending Boston Center
Tue 10:54:25 AM 44.6003 -73.4372 338° Northwest 107 123 1,200 -677 Descending Boston Center
Tue 10:55:28 AM 44.6283 -73.4533 338° Northwest 109 125 500 -188 Descending Boston Center
Tue 10:57:05 AM 44.6611 -73.4731 337° Northwest 77 89 700 382 Climbing Boston Center
Tue 10:58:05 AM 44.6853 -73.4675 North 93 107 1,500 750 Climbing Boston Center
Tue 10:59:05 AM 44.7100 -73.4525 23° Northeast 98 113 2,200 677 Climbing Boston Center
Tue 11:00:09 AM 44.7372 -73.4394 19° North 102 117 2,900 532 Climbing Boston Center
Tue 11:01:09 AM 44.7564 -73.3922 60° Northeast 119 137 3,300 99 Climbing Boston Center
Tue 11:02:10 AM 44.7733 -73.3550 57° Northeast 114 131 3,100 -99 Descending Boston Center
Tue 11:03:10 AM 44.7972 -73.3278 39° Northeast 111 128 3,100 -50 Level Boston Center
Tue 11:04:11 AM 44.8108 -73.2936 61° Northeast 108 124 3,000  Descending Boston Center
Tue 11:05:14 AM 44.8053 -73.3131 248° West 80 92 3,100 97 Climbing Boston Center
Tue 11:06:15 AM 44.8033 -73.3403 264° West 75 86 3,200  Climbing Boston Center
Tue 11:08:16 AM 44.7803 -73.3314 165° South 108 124 3,100 -33 Descending Boston Center
Tue 11:09:17 AM 44.7933 -73.2917 65° Northeast 111 128 3,100 -48 Level Boston Center
Tue 11:10:20 AM 44.8097 -73.3056 329° Northwest 94 108 3,000 -48 Descending Boston Center
Tue 11:11:21 AM 44.8086 -73.3339 267° West 75 86 3,000 397 Level Boston Center
Tue 11:12:21 AM 44.7947 -73.3611 234° Southwest 72 83 3,800 595 Climbing Boston Center
Tue 11:13:22 AM 44.7811 -73.3344 126° Southeast 100 115 4,200 242 Climbing Boston Center
Tue 11:14:25 AM 44.7969 -73.3153 41° Northeast 96 110 4,300  Climbing Boston Center
Tue 11:15:25 AM 44.7903 -73.3358 245° Southwest 76 87 4,200 -397 Descending Boston Center
Tue 11:16:26 AM 44.7719 -73.3133 139° Southeast 108 124 3,500 -49 Descending Boston Center
Tue 11:17:27 AM 44.7775 -73.2789 77° East 106 122 4,100 293 Climbing Boston Center
Tue 11:18:29 AM 44.7906 -73.3014 309° West 80 92 4,100 -488 Level Boston Center
Tue 11:19:30 AM 44.7828 -73.3283 248° West 79 91 3,100 -541 Descending Boston Center
Tue 11:20:31 AM 44.7883 -73.3564 286° West 76 87 3,000 -48 Descending Boston Center
Tue 11:21:34 AM 44.7781 -73.3694 222° Southwest 81 93 3,000  Level Boston Center
Tue 11:22:35 AM 44.7519 -73.3539 157° South 84 97 3,000  Level Boston Center
Tue 11:23:35 AM 44.7292 -73.3464 167° South 84 97 3,000  Level Boston Center
Tue 11:24:36 AM 44.7047 -73.3344 161° South 86 99 3,000  Level Boston Center
Tue 11:25:39 AM 44.6819 -73.3278 168° South 85 98 3,000 48 Level Boston Center
Tue 11:26:40 AM 44.6600 -73.3328 189° South 81 93 3,100 49 Climbing Boston Center
Tue 11:27:41 AM 44.6358 -73.3375 188° South 82 94 3,100 -99 Level Boston Center
Tue 11:28:41 AM 44.6133 -73.3414 187° South 83 96 2,900 -387 Descending Boston Center
Tue 11:29:45 AM 44.5914 -73.3281 157° South 91 105 2,300 -290 Descending Boston Center
Tue 11:30:45 AM 44.5692 -73.3053 144° Southeast 92 106 2,300 -50 Level Boston Center
Tue 11:31:45 AM 44.5517 -73.2800 134° Southeast 92 106 2,200 -97 Descending Boston Center
Tue 11:32:49 AM 44.5358 -73.2533 130° Southeast 84 97 2,100 -242 Descending Boston Center
Tue 11:33:49 AM 44.5194 -73.2275 132° Southeast 88 101 1,700 -496 Descending Boston Center
Tue 11:34:50 AM 44.5039 -73.2028 131° Southeast 85 98 1,100 -541 Descending Boston Center
Tue 11:35:51 AM 44.4881 -73.1775 131° Southeast 80 92 600 -387 Descending Boston Center
Tue 11:36:54 AM 44.4750 -73.1572 132° Southeast 73 84 300 -286 Descending Boston Center

Login

Don't have an account? Register now (free) for customized features, flight alerts, and more!